Back to Top

Language: 

My Weather Underground Personal Weather Station Historical Data with Graphs...

Delerius Weather Station Historical Data
Daily Summary for October 6, 2017 Units:  Metric    English   Both
« Previous Day
Next Day »
Daily Weekly Monthly Yearly Custom
  High: Low: Average:
Temperature: 14.9 °C 6.2 °C 10.6 °C
Dew Point: 8 °C 4.7 °C 6.7 °C
Humidity: 91 % 58 % 78 %
Wind Speed: 16.1 km/h 0 km/h 8 km/h
Wind Gust: 29 km/h - -
Wind:- - WNW
Pressure: 1026.6 hPa 1019.9 hPa -
Precipitation: 0 mm    
Historical Graphs
 
 
Tabular Data for October 6, 2017
Time Temperature Dew Point Pressure Wind Wind Speed Wind Gust Humidity Rainfall Rate (Hourly) solar Conditions
00:00 9.4 °C 7.2 °C 1021.6 hPa WNW 12.9 km/h 20.9 km/h 86 % 0 mm 0 W/m2
00:05 9.3 °C 7.1 °C 1021.6 hPa WNW 12.9 km/h 22.5 km/h 86 % 0 mm 0 W/m2
00:10 9.3 °C 7.1 °C 1021.6 hPa WNW 14.5 km/h 24.1 km/h 86 % 0 mm 0 W/m2
00:15 9.3 °C 6.9 °C 1021.6 hPa WNW 14.5 km/h 24.1 km/h 85 % 0 mm 0 W/m2
00:20 9.3 °C 6.9 °C 1021.6 hPa WNW 12.9 km/h 22.5 km/h 85 % 0 mm 0 W/m2
00:25 9.3 °C 6.9 °C 1021.6 hPa WNW 14.5 km/h 22.5 km/h 85 % 0 mm 0 W/m2
00:30 9.2 °C 6.8 °C 1021.6 hPa WNW 14.5 km/h 24.1 km/h 85 % 0 mm 0 W/m2
00:35 9.2 °C 6.8 °C 1021.9 hPa WNW 14.5 km/h 24.1 km/h 85 % 0 mm 0 W/m2
00:37 9.2 °C 6.8 °C 1021.9 hPa WNW 14.5 km/h 22.5 km/h 85 % 0 mm 0 W/m2
00:42 9.1 °C 6.7 °C 1021.9 hPa WNW 12.9 km/h 20.9 km/h 85 % 0 mm 0 W/m2
00:48 9.1 °C 6.7 °C 1021.9 hPa WNW 12.9 km/h 19.3 km/h 85 % 0 mm 0 W/m2
00:52 9 °C 6.8 °C 1021.6 hPa WNW 12.9 km/h 19.3 km/h 86 % 0 mm 0 W/m2
00:58 9 °C 6.8 °C 1021.6 hPa WNW 12.9 km/h 20.9 km/h 86 % 0 mm 0 W/m2
01:03 8.9 °C 6.7 °C 1021.6 hPa WNW 12.9 km/h 20.9 km/h 86 % 0 mm 0 W/m2
01:08 8.9 °C 6.7 °C 1021.9 hPa WNW 12.9 km/h 20.9 km/h 86 % 0 mm 0 W/m2
01:13 8.9 °C 6.7 °C 1021.9 hPa WNW 11.3 km/h 20.9 km/h 86 % 0 mm 0 W/m2
01:18 8.8 °C 6.6 °C 1021.9 hPa West 11.3 km/h 20.9 km/h 86 % 0 mm 0 W/m2
01:23 8.8 °C 6.6 °C 1022.2 hPa WNW 11.3 km/h 20.9 km/h 86 % 0 mm 0 W/m2
01:28 8.8 °C 6.6 °C 1021.9 hPa WNW 12.9 km/h 20.9 km/h 86 % 0 mm 0 W/m2
01:33 8.7 °C 6.5 °C 1021.9 hPa WNW 11.3 km/h 19.3 km/h 86 % 0 mm 0 W/m2
01:38 8.7 °C 6.5 °C 1022.2 hPa WNW 9.7 km/h 16.1 km/h 86 % 0 mm 0 W/m2
01:43 8.6 °C 6.4 °C 1022.2 hPa WNW 9.7 km/h 16.1 km/h 86 % 0 mm 0 W/m2
01:48 8.5 °C 6.3 °C 1022.2 hPa WNW 9.7 km/h 19.3 km/h 86 % 0 mm 0 W/m2
01:53 8.5 °C 6.3 °C 1022.2 hPa WNW 9.7 km/h 19.3 km/h 86 % 0 mm 0 W/m2
01:58 8.4 °C 6.2 °C 1022.2 hPa WNW 9.7 km/h 17.7 km/h 86 % 0 mm 0 W/m2
02:03 8.4 °C 6.2 °C 1022.6 hPa WNW 9.7 km/h 17.7 km/h 86 % 0 mm 0 W/m2
02:08 8.4 °C 6.3 °C 1022.6 hPa NW 9.7 km/h 19.3 km/h 87 % 0 mm 0 W/m2
02:13 8.4 °C 6.3 °C 1022.6 hPa NW 9.7 km/h 19.3 km/h 87 % 0 mm 0 W/m2
02:18 8.4 °C 6.3 °C 1022.6 hPa NW 9.7 km/h 17.7 km/h 87 % 0 mm 0 W/m2
02:23 8.3 °C 6.3 °C 1022.6 hPa NW 11.3 km/h 17.7 km/h 87 % 0 mm 0 W/m2
02:28 8.3 °C 6.3 °C 1022.6 hPa WNW 12.9 km/h 20.9 km/h 87 % 0 mm 0 W/m2
02:33 8.3 °C 6.3 °C 1022.6 hPa WNW 12.9 km/h 20.9 km/h 87 % 0 mm 0 W/m2
02:38 8.3 °C 6.3 °C 1022.6 hPa WNW 11.3 km/h 19.3 km/h 87 % 0 mm 0 W/m2
02:43 8.2 °C 6.2 °C 1022.6 hPa WNW 11.3 km/h 17.7 km/h 87 % 0 mm 0 W/m2
02:48 8.2 °C 6.2 °C 1022.6 hPa WNW 11.3 km/h 17.7 km/h 87 % 0 mm 0 W/m2
02:53 8.2 °C 6.2 °C 1022.6 hPa WNW 11.3 km/h 19.3 km/h 87 % 0 mm 0 W/m2
02:58 8.1 °C 6.2 °C 1022.6 hPa WNW 11.3 km/h 19.3 km/h 88 % 0 mm 0 W/m2
03:03 8.1 °C 6.2 °C 1022.6 hPa WNW 11.3 km/h 19.3 km/h 88 % 0 mm 0 W/m2
03:08 8.1 °C 6.1 °C 1022.6 hPa WNW 9.7 km/h 19.3 km/h 87 % 0 mm 0 W/m2
03:18 7.9 °C 6.1 °C 1022.9 hPa WNW 9.7 km/h 16.1 km/h 88 % 0 mm 0 W/m2
03:23 7.9 °C 6.1 °C 1022.9 hPa WNW 8 km/h 16.1 km/h 88 % 0 mm 0 W/m2
03:28 7.9 °C 6.1 °C 1022.9 hPa WNW 9.7 km/h 16.1 km/h 88 % 0 mm 0 W/m2
03:33 7.8 °C 5.9 °C 1022.9 hPa NW 9.7 km/h 16.1 km/h 88 % 0 mm 0 W/m2
03:38 7.8 °C 5.9 °C 1022.9 hPa WNW 9.7 km/h 16.1 km/h 88 % 0 mm 0 W/m2
03:43 7.8 °C 5.9 °C 1022.9 hPa WNW 9.7 km/h 14.5 km/h 88 % 0 mm 0 W/m2
03:48 7.7 °C 5.8 °C 1022.9 hPa WNW 8 km/h 14.5 km/h 88 % 0 mm 0 W/m2
03:53 7.6 °C 5.7 °C 1022.9 hPa WNW 6.4 km/h 11.3 km/h 88 % 0 mm 0 W/m2
03:54 7.6 °C 5.7 °C 1022.9 hPa WNW 6.4 km/h 11.3 km/h 88 % 0 mm 0 W/m2
03:59 7.5 °C 5.7 °C 1022.9 hPa NW 4.8 km/h 9.7 km/h 88 % 0 mm 0 W/m2
04:04 7.4 °C 5.6 °C 1022.9 hPa NW 4.8 km/h 11.3 km/h 88 % 0 mm 0 W/m2
04:09 7.3 °C 5.4 °C 1022.9 hPa NW 3.2 km/h 11.3 km/h 88 % 0 mm 0 W/m2
04:15 7.2 °C 5.3 °C 1022.9 hPa NNW 3.2 km/h 9.7 km/h 88 % 0 mm 0 W/m2
04:20 7.2 °C 5.3 °C 1023.2 hPa NW 4.8 km/h 11.3 km/h 88 % 0 mm 0 W/m2
04:23 7.2 °C 5.5 °C 1023.2 hPa NW 4.8 km/h 11.3 km/h 89 % 0 mm 0 W/m2
04:24 7.2 °C 5.5 °C 1023.2 hPa NW 4.8 km/h 11.3 km/h 89 % 0 mm 0 W/m2
04:28 7.1 °C 5.4 °C 1023.2 hPa NW 6.4 km/h 11.3 km/h 89 % 0 mm 0 W/m2
04:38 7.1 °C 5.4 °C 1023.2 hPa WNW 8 km/h 14.5 km/h 89 % 0 mm 0 W/m2
04:43 7.2 °C 5.5 °C 1023.2 hPa WNW 8 km/h 14.5 km/h 89 % 0 mm 0 W/m2
04:48 7.2 °C 5.5 °C 1023.2 hPa WNW 8 km/h 14.5 km/h 89 % 0 mm 0 W/m2
04:49 7.1 °C 5.4 °C 1023.2 hPa WNW 8 km/h 14.5 km/h 89 % 0 mm 0 W/m2
04:54 7.1 °C 5.4 °C 1023.2 hPa WNW 8 km/h 14.5 km/h 89 % 0 mm 0 W/m2
04:59 7.1 °C 5.4 °C 1023.2 hPa WNW 8 km/h 14.5 km/h 89 % 0 mm 0 W/m2
05:09 6.9 °C 5.2 °C 1023.2 hPa WNW 6.4 km/h 11.3 km/h 89 % 0 mm 0 W/m2
05:14 6.8 °C 5.1 °C 1023.6 hPa WNW 6.4 km/h 9.7 km/h 89 % 0 mm 0 W/m2
05:19 6.7 °C 5 °C 1023.6 hPa WNW 6.4 km/h 9.7 km/h 89 % 0 mm 0 W/m2
05:24 6.7 °C 5 °C 1023.6 hPa WNW 6.4 km/h 11.3 km/h 89 % 0 mm 0 W/m2
05:30 6.6 °C 5.1 °C 1023.6 hPa WNW 4.8 km/h 11.3 km/h 90 % 0 mm 0 W/m2
05:35 6.6 °C 5.1 °C 1023.6 hPa WNW 3.2 km/h 8 km/h 90 % 0 mm 0 W/m2
05:40 6.5 °C 5 °C 1023.6 hPa NW 4.8 km/h 9.7 km/h 90 % 0 mm 0 W/m2
05:45 6.4 °C 4.9 °C 1023.6 hPa NW 4.8 km/h 9.7 km/h 90 % 0 mm 0 W/m2
05:50 6.4 °C 4.9 °C 1023.6 hPa WNW 6.4 km/h 12.9 km/h 90 % 0 mm 0 W/m2
05:55 6.4 °C 4.9 °C 1023.6 hPa WNW 8 km/h 16.1 km/h 90 % 0 mm 0 W/m2
06:00 6.5 °C 5.1 °C 1023.6 hPa WNW 8 km/h 16.1 km/h 91 % 0 mm 0 W/m2
06:05 6.6 °C 5.1 °C 1023.9 hPa WNW 8 km/h 12.9 km/h 90 % 0 mm 0 W/m2
06:10 6.5 °C 5 °C 1023.9 hPa WNW 6.4 km/h 11.3 km/h 90 % 0 mm 0 W/m2
06:25 6.4 °C 4.9 °C 1023.9 hPa WNW 8 km/h 14.5 km/h 90 % 0 mm 0 W/m2
06:30 6.4 °C 4.9 °C 1023.9 hPa WNW 8 km/h 12.9 km/h 90 % 0 mm 0 W/m2
06:35 6.4 °C 4.9 °C 1023.9 hPa WNW 8 km/h 12.9 km/h 90 % 0 mm 0 W/m2
06:40 6.4 °C 5.1 °C 1023.9 hPa NW 6.4 km/h 12.9 km/h 91 % 0 mm 0 W/m2
06:45 6.4 °C 4.9 °C 1023.9 hPa NW 6.4 km/h 12.9 km/h 90 % 0 mm 0 W/m2
06:50 6.4 °C 5.1 °C 1023.9 hPa NW 8 km/h 12.9 km/h 91 % 0 mm 0 W/m2
06:55 6.4 °C 5.1 °C 1024.3 hPa WNW 8 km/h 12.9 km/h 91 % 0 mm 0 W/m2
07:00 6.4 °C 4.9 °C 1024.3 hPa WNW 8 km/h 14.5 km/h 90 % 0 mm 0 W/m2
07:05 6.4 °C 4.9 °C 1024.3 hPa WNW 8 km/h 14.5 km/h 90 % 0 mm 0 W/m2
07:10 6.3 °C 4.8 °C 1024.3 hPa WNW 6.4 km/h 11.3 km/h 90 % 0 mm 0 W/m2
07:15 6.3 °C 4.8 °C 1024.3 hPa WNW 6.4 km/h 11.3 km/h 90 % 0 mm 5 W/m2
07:16 6.3 °C 4.8 °C 1024.3 hPa WNW 6.4 km/h 11.3 km/h 90 % 0 mm 5 W/m2
07:21 6.2 °C 4.7 °C 1024.3 hPa WNW 8 km/h 11.3 km/h 90 % 0 mm 7 W/m2
07:26 6.2 °C 4.7 °C 1024.6 hPa WNW 8 km/h 11.3 km/h 90 % 0 mm 9 W/m2
07:31 6.2 °C 4.7 °C 1024.6 hPa WNW 8 km/h 12.9 km/h 90 % 0 mm 11 W/m2
07:36 6.2 °C 4.8 °C 1024.6 hPa WNW 8 km/h 12.9 km/h 91 % 0 mm 12 W/m2
07:46 6.3 °C 4.9 °C 1024.6 hPa WNW 8 km/h 14.5 km/h 91 % 0 mm 23 W/m2
07:51 6.4 °C 5.1 °C 1024.9 hPa WNW 8 km/h 11.3 km/h 91 % 0 mm 65 W/m2
07:56 6.6 °C 5.2 °C 1024.9 hPa WNW 8 km/h 11.3 km/h 91 % 0 mm 79 W/m2
08:01 6.9 °C 5.6 °C 1024.6 hPa NW 6.4 km/h 11.3 km/h 91 % 0 mm 91 W/m2
08:06 7.1 °C 5.6 °C 1024.9 hPa WNW 6.4 km/h 11.3 km/h 90 % 0 mm 104 W/m2
08:11 7.4 °C 5.9 °C 1024.9 hPa WNW 8 km/h 11.3 km/h 90 % 0 mm 116 W/m2
08:16 7.7 °C 6 °C 1024.9 hPa NW 8 km/h 12.9 km/h 89 % 0 mm 127 W/m2
08:21 8.1 °C 6.2 °C 1025.3 hPa NW 8 km/h 12.9 km/h 88 % 0 mm 137 W/m2
08:26 8.3 °C 6.1 °C 1025.3 hPa WNW 8 km/h 12.9 km/h 86 % 0 mm 146 W/m2
08:31 8.6 °C 6.4 °C 1025.3 hPa WNW 9.7 km/h 14.5 km/h 86 % 0 mm 160 W/m2
08:36 8.8 °C 6.4 °C 1025.3 hPa NW 9.7 km/h 16.1 km/h 85 % 0 mm 171 W/m2
08:41 9.1 °C 6.6 °C 1025.6 hPa NW 8 km/h 16.1 km/h 84 % 0 mm 183 W/m2
08:46 9.2 °C 6.4 °C 1025.6 hPa WNW 9.7 km/h 16.1 km/h 83 % 0 mm 197 W/m2
08:51 9.3 °C 6.6 °C 1025.6 hPa WNW 9.7 km/h 14.5 km/h 83 % 0 mm 211 W/m2
08:56 9.5 °C 6.6 °C 1025.6 hPa WNW 9.7 km/h 14.5 km/h 82 % 0 mm 225 W/m2
09:01 9.7 °C 6.6 °C 1026 hPa WNW 9.7 km/h 17.7 km/h 81 % 0 mm 236 W/m2
09:06 9.9 °C 6.8 °C 1026 hPa WNW 11.3 km/h 17.7 km/h 81 % 0 mm 250 W/m2
09:11 10.1 °C 6.8 °C 1026 hPa WNW 11.3 km/h 17.7 km/h 80 % 0 mm 262 W/m2
09:16 10.3 °C 6.8 °C 1026 hPa WNW 11.3 km/h 19.3 km/h 79 % 0 mm 276 W/m2
09:21 10.4 °C 6.9 °C 1026 hPa WNW 11.3 km/h 19.3 km/h 79 % 0 mm 287 W/m2
09:26 10.7 °C 7 °C 1026 hPa WNW 11.3 km/h 19.3 km/h 78 % 0 mm 297 W/m2
09:31 10.8 °C 7.1 °C 1026 hPa NW 9.7 km/h 19.3 km/h 78 % 0 mm 258 W/m2
09:37 11 °C 7.1 °C 1026.3 hPa NW 8 km/h 19.3 km/h 77 % 0 mm 325 W/m2
09:42 11.1 °C 7 °C 1026.3 hPa WNW 9.7 km/h 22.5 km/h 76 % 0 mm 336 W/m2
09:47 11.1 °C 7 °C 1026.3 hPa WNW 11.3 km/h 22.5 km/h 76 % 0 mm 346 W/m2
09:52 11.2 °C 6.9 °C 1026.3 hPa WNW 11.3 km/h 19.3 km/h 75 % 0 mm 353 W/m2
09:57 11.4 °C 6.9 °C 1026.3 hPa NW 9.7 km/h 19.3 km/h 74 % 0 mm 360 W/m2
10:02 11.6 °C 6.7 °C 1026.3 hPa NW 11.3 km/h 19.3 km/h 72 % 0 mm 378 W/m2
10:12 12 °C 6.9 °C 1026.3 hPa NW 9.7 km/h 19.3 km/h 71 % 0 mm 403 W/m2
10:17 12.2 °C 6.9 °C 1026.3 hPa NW 11.3 km/h 19.3 km/h 70 % 0 mm 404 W/m2
10:22 12.3 °C 6.8 °C 1026.6 hPa NW 11.3 km/h 20.9 km/h 69 % 0 mm 408 W/m2
10:27 12.4 °C 6.9 °C 1026.3 hPa NW 11.3 km/h 20.9 km/h 69 % 0 mm 424 W/m2
10:32 12.5 °C 6.9 °C 1026.3 hPa NW 11.3 km/h 19.3 km/h 69 % 0 mm 427 W/m2
10:37 12.5 °C 6.8 °C 1026.3 hPa NW 11.3 km/h 19.3 km/h 68 % 0 mm 446 W/m2
10:42 12.6 °C 6.8 °C 1026.6 hPa NW 11.3 km/h 20.9 km/h 68 % 0 mm 466 W/m2
10:47 12.6 °C 6.4 °C 1026.6 hPa WNW 11.3 km/h 25.7 km/h 66 % 0 mm 483 W/m2
10:52 12.8 °C 6.6 °C 1026.3 hPa WNW 12.9 km/h 25.7 km/h 66 % 0 mm 429 W/m2
10:57 12.8 °C 6.4 °C 1026.3 hPa NW 11.3 km/h 20.9 km/h 65 % 0 mm 411 W/m2
11:02 12.9 °C 6.5 °C 1026.3 hPa NW 9.7 km/h 17.7 km/h 65 % 0 mm 464 W/m2
11:07 12.9 °C 6.5 °C 1026.3 hPa NW 11.3 km/h 17.7 km/h 65 % 0 mm 490 W/m2
11:12 13 °C 6.1 °C 1026.3 hPa NW 11.3 km/h 20.9 km/h 63 % 0 mm 508 W/m2
11:17 13.1 °C 6.4 °C 1026.3 hPa NW 11.3 km/h 20.9 km/h 64 % 0 mm 510 W/m2
11:22 13.2 °C 6.3 °C 1026.3 hPa NW 12.9 km/h 20.9 km/h 63 % 0 mm 517 W/m2
11:27 13.2 °C 6.3 °C 1026.3 hPa NW 12.9 km/h 20.9 km/h 63 % 0 mm 522 W/m2
11:32 13.2 °C 6.1 °C 1026.3 hPa NW 11.3 km/h 20.9 km/h 62 % 0 mm 531 W/m2
11:37 13.2 °C 6.3 °C 1026.3 hPa NW 8 km/h 19.3 km/h 63 % 0 mm 575 W/m2
11:42 13.4 °C 6.3 °C 1026.3 hPa NW 8 km/h 17.7 km/h 62 % 0 mm 555 W/m2
11:47 13.6 °C 6.2 °C 1026 hPa WNW 9.7 km/h 20.9 km/h 61 % 0 mm 527 W/m2
11:52 13.7 °C 6.6 °C 1026 hPa NW 9.7 km/h 20.9 km/h 62 % 0 mm 531 W/m2
11:57 13.8 °C 6.4 °C 1026 hPa NW 8 km/h 17.7 km/h 61 % 0 mm 580 W/m2
12:02 13.9 °C 6.3 °C 1026 hPa NW 8 km/h 16.1 km/h 60 % 0 mm 606 W/m2
12:07 14 °C 6.6 °C 1026 hPa NNW 8 km/h 16.1 km/h 61 % 0 mm 598 W/m2
12:12 13.9 °C 6.5 °C 1026 hPa NNW 8 km/h 17.7 km/h 61 % 0 mm 566 W/m2
12:17 14.1 °C 6.7 °C 1026 hPa NW 9.7 km/h 20.9 km/h 61 % 0 mm 580 W/m2
12:19 14.1 °C 6.7 °C 1026 hPa NW 9.7 km/h 20.9 km/h 61 % 0 mm 568 W/m2
12:24 14.1 °C 6.4 °C 1026 hPa NW 11.3 km/h 20.9 km/h 60 % 0 mm 165 W/m2
12:29 14.1 °C 6.7 °C 1026 hPa NW 8 km/h 19.3 km/h 61 % 0 mm 608 W/m2
12:34 14.3 °C 7.1 °C 1025.6 hPa WNW 8 km/h 16.1 km/h 62 % 0 mm 598 W/m2
12:39 14.3 °C 6.9 °C 1026 hPa West 9.7 km/h 20.9 km/h 61 % 0 mm 624 W/m2
12:44 14.4 °C 6.9 °C 1026 hPa West 11.3 km/h 20.9 km/h 61 % 0 mm 584 W/m2
12:49 14.4 °C 6.7 °C 1026 hPa WNW 11.3 km/h 22.5 km/h 60 % 0 mm 490 W/m2
12:54 14.4 °C 6.5 °C 1026 hPa WNW 9.7 km/h 22.5 km/h 59 % 0 mm 526 W/m2
12:59 14.4 °C 6.7 °C 1025.6 hPa WNW 9.7 km/h 17.7 km/h 60 % 0 mm 197 W/m2
13:04 14.2 °C 6.6 °C 1026 hPa NW 9.7 km/h 17.7 km/h 60 % 0 mm 473 W/m2
13:09 14.2 °C 7 °C 1025.6 hPa NW 9.7 km/h 16.1 km/h 62 % 0 mm 534 W/m2
13:14 14.5 °C 7.1 °C 1025.6 hPa WNW 8 km/h 16.1 km/h 61 % 0 mm 466 W/m2
13:24 14.6 °C 6.7 °C 1025.3 hPa WNW 11.3 km/h 19.3 km/h 59 % 0 mm 478 W/m2
13:29 14.6 °C 6.7 °C 1025.3 hPa WNW 11.3 km/h 19.3 km/h 59 % 0 mm 388 W/m2
13:34 14.5 °C 6.8 °C 1025.3 hPa NW 11.3 km/h 17.7 km/h 60 % 0 mm 362 W/m2
13:39 14.4 °C 6.7 °C 1025.3 hPa NW 11.3 km/h 17.7 km/h 60 % 0 mm 316 W/m2
13:44 14.4 °C 6.7 °C 1025.3 hPa WNW 11.3 km/h 19.3 km/h 60 % 0 mm 380 W/m2
13:49 14.4 °C 6.7 °C 1025.3 hPa WNW 12.9 km/h 19.3 km/h 60 % 0 mm 383 W/m2
13:54 14.5 °C 6.8 °C 1025.3 hPa NW 9.7 km/h 19.3 km/h 60 % 0 mm 415 W/m2
13:59 14.4 °C 6.9 °C 1025.3 hPa NW 9.7 km/h 19.3 km/h 61 % 0 mm 408 W/m2
14:04 14.5 °C 7.1 °C 1025.3 hPa NW 11.3 km/h 17.7 km/h 61 % 0 mm 441 W/m2
14:09 14.6 °C 7.2 °C 1025.3 hPa WNW 11.3 km/h 17.7 km/h 61 % 0 mm 417 W/m2
14:14 14.7 °C 7 °C 1025.3 hPa WNW 11.3 km/h 19.3 km/h 60 % 0 mm 415 W/m2
14:19 14.8 °C 7.1 °C 1025.3 hPa WNW 9.7 km/h 19.3 km/h 60 % 0 mm 373 W/m2
14:24 14.9 °C 6.9 °C 1025.3 hPa WNW 9.7 km/h 20.9 km/h 59 % 0 mm 301 W/m2
14:29 14.8 °C 6.8 °C 1025.3 hPa WNW 12.9 km/h 24.1 km/h 59 % 0 mm 320 W/m2
14:34 14.8 °C 6.8 °C 1025.3 hPa WNW 12.9 km/h 24.1 km/h 59 % 0 mm 341 W/m2
14:39 14.8 °C 6.8 °C 1024.9 hPa WNW 11.3 km/h 19.3 km/h 59 % 0 mm 315 W/m2
14:41 14.7 °C 6.5 °C 1024.9 hPa West 11.3 km/h 19.3 km/h 58 % 0 mm 304 W/m2
14:46 14.6 °C 6.7 °C 1024.9 hPa West 12.9 km/h 29 km/h 59 % 0 mm 299 W/m2
14:51 14.5 °C 6.3 °C 1024.9 hPa West 16.1 km/h 29 km/h 58 % 0 mm 229 W/m2
14:56 14.4 °C 6.5 °C 1024.9 hPa WNW 14.5 km/h 25.7 km/h 59 % 0 mm 251 W/m2
15:02 14.3 °C 6.4 °C 1025.3 hPa WNW 14.5 km/h 24.1 km/h 59 % 0 mm 246 W/m2
15:12 14.2 °C 6.6 °C 1024.9 hPa West 11.3 km/h 22.5 km/h 60 % 0 mm 192 W/m2
15:17 14.1 °C 6.7 °C 1024.9 hPa WNW 12.9 km/h 22.5 km/h 61 % 0 mm 172 W/m2
15:22 14 °C 6.6 °C 1024.9 hPa WNW 14.5 km/h 20.9 km/h 61 % 0 mm 160 W/m2
15:32 13.8 °C 7.1 °C 1024.9 hPa WNW 12.9 km/h 22.5 km/h 64 % 0 mm 169 W/m2
15:37 13.7 °C 6.8 °C 1024.6 hPa WNW 12.9 km/h 24.1 km/h 63 % 0 mm 167 W/m2
15:42 13.7 °C 6.8 °C 1024.6 hPa WNW 12.9 km/h 24.1 km/h 63 % 0 mm 171 W/m2
15:47 13.7 °C 7 °C 1024.6 hPa WNW 11.3 km/h 20.9 km/h 64 % 0 mm 167 W/m2
15:52 13.6 °C 6.9 °C 1024.6 hPa WNW 11.3 km/h 19.3 km/h 64 % 0 mm 162 W/m2
15:57 13.6 °C 7.2 °C 1024.6 hPa WNW 11.3 km/h 17.7 km/h 65 % 0 mm 158 W/m2
16:02 13.6 °C 7.2 °C 1024.6 hPa WNW 11.3 km/h 19.3 km/h 65 % 0 mm 142 W/m2
16:07 13.6 °C 7.2 °C 1024.3 hPa WNW 11.3 km/h 22.5 km/h 65 % 0 mm 135 W/m2
16:12 13.5 °C 7.1 °C 1024.6 hPa WNW 12.9 km/h 24.1 km/h 65 % 0 mm 130 W/m2
16:17 13.4 °C 6.9 °C 1024.6 hPa WNW 12.9 km/h 24.1 km/h 65 % 0 mm 114 W/m2
16:27 13.3 °C 7.1 °C 1024.3 hPa WNW 9.7 km/h 19.3 km/h 66 % 0 mm 102 W/m2
16:32 13.2 °C 7.2 °C 1024.3 hPa WNW 9.7 km/h 19.3 km/h 67 % 0 mm 107 W/m2
16:37 13.2 °C 7 °C 1024.3 hPa WNW 8 km/h 16.1 km/h 66 % 0 mm 102 W/m2
16:42 13.1 °C 7.1 °C 1024.3 hPa West 9.7 km/h 16.1 km/h 67 % 0 mm 93 W/m2
16:47 13.1 °C 7.3 °C 1024.3 hPa West 8 km/h 14.5 km/h 68 % 0 mm 86 W/m2
16:52 13 °C 7.2 °C 1024.3 hPa West 9.7 km/h 16.1 km/h 68 % 0 mm 76 W/m2
16:57 12.9 °C 7.3 °C 1024.3 hPa West 8 km/h 16.1 km/h 69 % 0 mm 65 W/m2
17:02 12.9 °C 7.3 °C 1024.3 hPa West 8 km/h 16.1 km/h 69 % 0 mm 60 W/m2
17:07 12.8 °C 7.3 °C 1024.3 hPa West 9.7 km/h 19.3 km/h 69 % 0 mm 56 W/m2
17:17 12.7 °C 7.4 °C 1024.3 hPa West 11.3 km/h 19.3 km/h 70 % 0 mm 39 W/m2
17:22 12.6 °C 7.5 °C 1023.9 hPa West 11.3 km/h 19.3 km/h 71 % 0 mm 33 W/m2
17:27 12.6 °C 7.7 °C 1024.3 hPa West 8 km/h 14.5 km/h 72 % 0 mm 30 W/m2
17:32 12.4 °C 7.5 °C 1024.3 hPa West 8 km/h 14.5 km/h 72 % 0 mm 26 W/m2
17:37 12.4 °C 7.7 °C 1024.3 hPa West 8 km/h 14.5 km/h 73 % 0 mm 23 W/m2
17:42 12.3 °C 7.6 °C 1024.3 hPa West 8 km/h 14.5 km/h 73 % 0 mm 21 W/m2
17:47 12.3 °C 7.8 °C 1024.3 hPa WSW 6.4 km/h 14.5 km/h 74 % 0 mm 19 W/m2
17:52 12.2 °C 7.7 °C 1023.9 hPa WSW 4.8 km/h 9.7 km/h 74 % 0 mm 19 W/m2
17:57 12.2 °C 7.7 °C 1023.9 hPa West 6.4 km/h 11.3 km/h 74 % 0 mm 16 W/m2
18:02 12.1 °C 7.6 °C 1023.6 hPa West 6.4 km/h 11.3 km/h 74 % 0 mm 12 W/m2
18:07 12.1 °C 7.8 °C 1023.9 hPa WSW 6.4 km/h 11.3 km/h 75 % 0 mm 11 W/m2
18:12 12 °C 7.7 °C 1023.9 hPa WSW 6.4 km/h 11.3 km/h 75 % 0 mm 11 W/m2
18:17 11.9 °C 7.6 °C 1023.9 hPa WSW 8 km/h 12.9 km/h 75 % 0 mm 7 W/m2
18:22 11.9 °C 7.6 °C 1023.9 hPa WSW 6.4 km/h 12.9 km/h 75 % 0 mm 7 W/m2
18:27 11.9 °C 7.8 °C 1023.9 hPa West 4.8 km/h 8 km/h 76 % 0 mm 11 W/m2
18:32 11.8 °C 7.7 °C 1023.9 hPa West 4.8 km/h 11.3 km/h 76 % 0 mm 7 W/m2
18:37 11.7 °C 7.6 °C 1023.9 hPa West 4.8 km/h 11.3 km/h 76 % 0 mm 0 W/m2
18:42 11.7 °C 7.8 °C 1023.6 hPa West 4.8 km/h 11.3 km/h 77 % 0 mm 0 W/m2
18:47 11.7 °C 7.8 °C 1023.9 hPa WSW 4.8 km/h 9.7 km/h 77 % 0 mm 0 W/m2
18:53 11.6 °C 7.7 °C 1023.9 hPa SW 4.8 km/h 9.7 km/h 77 % 0 mm 0 W/m2
18:58 11.6 °C 7.7 °C 1023.9 hPa SW 4.8 km/h 9.7 km/h 77 % 0 mm 0 W/m2
19:03 11.5 °C 7.6 °C 1023.9 hPa SW 3.2 km/h 6.4 km/h 77 % 0 mm 0 W/m2
19:08 11.5 °C 7.8 °C 1023.6 hPa SW 1.6 km/h 6.4 km/h 78 % 0 mm 0 W/m2
19:13 11.4 °C 7.7 °C 1023.6 hPa Calm   8 km/h 78 % 0 mm 0 W/m2
19:18 11.3 °C 7.6 °C 1023.6 hPa SW 1.6 km/h 8 km/h 78 % 0 mm 0 W/m2
19:23 11.3 °C 7.6 °C 1023.6 hPa SW 1.6 km/h 8 km/h 78 % 0 mm 0 W/m2
19:28 11.2 °C 7.5 °C 1023.6 hPa SW 1.6 km/h 8 km/h 78 % 0 mm 0 W/m2
19:33 11.1 °C 7.4 °C 1023.6 hPa Calm   1.6 km/h 78 % 0 mm 0 W/m2
19:38 10.9 °C 7.4 °C 1023.6 hPa Calm     79 % 0 mm 0 W/m2
19:43 10.8 °C 7.5 °C 1023.2 hPa Calm   6.4 km/h 80 % 0 mm 0 W/m2
19:48 10.8 °C 7.7 °C 1023.2 hPa SW 1.6 km/h 6.4 km/h 81 % 0 mm 0 W/m2
19:53 10.7 °C 7.6 °C 1023.2 hPa Calm   6.4 km/h 81 % 0 mm 0 W/m2
19:58 10.6 °C 7.5 °C 1023.2 hPa Calm   4.8 km/h 81 % 0 mm 0 W/m2
20:03 10.5 °C 7.6 °C 1023.2 hPa Calm     82 % 0 mm 0 W/m2
20:08 10.4 °C 7.4 °C 1023.2 hPa Calm     82 % 0 mm 0 W/m2
20:13 10.3 °C 7.3 °C 1023.2 hPa Calm     82 % 0 mm 0 W/m2
20:18 10.2 °C 7.4 °C 1023.2 hPa Calm   1.6 km/h 83 % 0 mm 0 W/m2
20:23 10.1 °C 7.5 °C 1023.2 hPa Calm   6.4 km/h 84 % 0 mm 0 W/m2
20:28 10.1 °C 7.5 °C 1023.2 hPa West 1.6 km/h 8 km/h 84 % 0 mm 0 W/m2
20:33 10.2 °C 7.6 °C 1023.2 hPa WSW 3.2 km/h 9.7 km/h 84 % 0 mm 0 W/m2
20:43 10.4 °C 7.8 °C 1022.9 hPa WSW 1.6 km/h 8 km/h 84 % 0 mm 0 W/m2
20:48 10.5 °C 7.9 °C 1022.9 hPa Calm   3.2 km/h 84 % 0 mm 0 W/m2
20:53 10.5 °C 7.9 °C 1022.6 hPa Calm   4.8 km/h 84 % 0 mm 0 W/m2
20:58 10.5 °C 7.9 °C 1022.6 hPa Calm   4.8 km/h 84 % 0 mm 0 W/m2
21:03 10.5 °C 7.9 °C 1022.6 hPa WSW 3.2 km/h 8 km/h 84 % 0 mm 0 W/m2
21:08 10.5 °C 7.9 °C 1022.6 hPa WSW 4.8 km/h 9.7 km/h 84 % 0 mm 0 W/m2
21:13 10.6 °C 8 °C 1022.2 hPa SW 8 km/h 16.1 km/h 84 % 0 mm 0 W/m2
21:18 10.6 °C 8 °C 1022.2 hPa SW 8 km/h 16.1 km/h 84 % 0 mm 0 W/m2
21:23 10.6 °C 8 °C 1022.2 hPa SW 6.4 km/h 11.3 km/h 84 % 0 mm 0 W/m2
21:26 10.6 °C 8 °C 1022.2 hPa SW 6.4 km/h 9.7 km/h 84 % 0 mm 0 W/m2
21:31 10.6 °C 8 °C 1022.2 hPa WSW 6.4 km/h 11.3 km/h 84 % 0 mm 0 W/m2
21:36 10.6 °C 8 °C 1022.6 hPa WSW 4.8 km/h 11.3 km/h 84 % 0 mm 0 W/m2
21:41 10.6 °C 8 °C 1022.2 hPa WSW 3.2 km/h 9.7 km/h 84 % 0 mm 0 W/m2
21:46 10.6 °C 8 °C 1021.9 hPa SW 1.6 km/h 8 km/h 84 % 0 mm 0 W/m2
21:51 10.7 °C 7.9 °C 1021.9 hPa SW 1.6 km/h 8 km/h 83 % 0 mm 0 W/m2
21:56 10.7 °C 7.9 °C 1021.9 hPa SW 3.2 km/h 8 km/h 83 % 0 mm 0 W/m2
22:01 10.7 °C 7.9 °C 1021.9 hPa SW 1.6 km/h 8 km/h 83 % 0 mm 0 W/m2
22:06 10.7 °C 7.9 °C 1021.9 hPa Calm   8 km/h 83 % 0 mm 0 W/m2
22:11 10.6 °C 7.8 °C 1021.9 hPa Calm   1.6 km/h 83 % 0 mm 0 W/m2
22:16 10.6 °C 7.8 °C 1021.6 hPa Calm   8 km/h 83 % 0 mm 0 W/m2
22:21 10.5 °C 7.7 °C 1021.6 hPa SW 1.6 km/h 9.7 km/h 83 % 0 mm 0 W/m2
22:26 10.6 °C 7.7 °C 1021.6 hPa SW 3.2 km/h 9.7 km/h 82 % 0 mm 0 W/m2
22:31 10.6 °C 7.5 °C 1021.2 hPa WSW 3.2 km/h 9.7 km/h 81 % 0 mm 0 W/m2
22:36 10.6 °C 7.5 °C 1021.2 hPa WSW 3.2 km/h 9.7 km/h 81 % 0 mm 0 W/m2
22:41 10.7 °C 7.6 °C 1021.2 hPa WSW 1.6 km/h 6.4 km/h 81 % 0 mm 0 W/m2
22:46 10.7 °C 7.6 °C 1021.2 hPa Calm   3.2 km/h 81 % 0 mm 0 W/m2
22:51 10.7 °C 7.6 °C 1021.2 hPa Calm   1.6 km/h 81 % 0 mm 0 W/m2
22:56 10.6 °C 7.5 °C 1021.2 hPa Calm   6.4 km/h 81 % 0 mm 0 W/m2
23:01 10.6 °C 7.5 °C 1021.2 hPa WSW 1.6 km/h 8 km/h 81 % 0 mm 0 W/m2
23:06 10.6 °C 7.5 °C 1020.9 hPa WSW 3.2 km/h 9.7 km/h 81 % 0 mm 0 W/m2
23:11 10.6 °C 7.5 °C 1020.9 hPa WSW 4.8 km/h 9.7 km/h 81 % 0 mm 0 W/m2
23:14 10.6 °C 7.5 °C 1020.9 hPa WSW 6.4 km/h 9.7 km/h 81 % 0 mm 0 W/m2
23:19 10.6 °C 7.5 °C 1020.5 hPa West 8 km/h 11.3 km/h 81 % 0 mm 0 W/m2
23:24 10.7 °C 7.4 °C 1020.2 hPa WSW 6.4 km/h 12.9 km/h 80 % 0 mm 0 W/m2
23:29 10.8 °C 7.5 °C 1020.2 hPa WSW 4.8 km/h 12.9 km/h 80 % 0 mm 0 W/m2
23:34 10.8 °C 7.5 °C 1020.2 hPa SW 4.8 km/h 9.7 km/h 80 % 0 mm 0 W/m2
23:39 10.9 °C 7.6 °C 1020.2 hPa SSW 6.4 km/h 14.5 km/h 80 % 0 mm 0 W/m2
23:44 11 °C 7.7 °C 1020.2 hPa SSW 6.4 km/h 14.5 km/h 80 % 0 mm 0 W/m2
23:49 11.1 °C 7.6 °C 1019.9 hPa SSW 6.4 km/h 11.3 km/h 79 % 0 mm 0 W/m2
23:54 11.1 °C 7.6 °C 1019.9 hPa SSW 4.8 km/h 11.3 km/h 79 % 0 mm 0 W/m2
23:59 11.2 °C 7.9 °C 1019.9 hPa SW 4.8 km/h 12.9 km/h 80 % 0 mm 0 W/m2
Delerius-Weather
Compliments of Weather Underground - 2.25 mb

Data updates at regular intervals.